createdAt,value
2019-06-26T00:01:34.267Z,4.87
2019-06-26T00:04:02.946Z,4.70
2019-06-26T00:06:31.930Z,4.95
2019-06-26T00:09:00.614Z,5.17
2019-06-26T00:11:29.282Z,5.00
2019-06-26T00:13:57.993Z,5.62
2019-06-26T00:16:26.922Z,5.87
2019-06-26T00:18:55.617Z,5.20
2019-06-26T00:21:24.345Z,5.00
2019-06-26T00:23:53.588Z,4.80
2019-06-26T00:26:22.299Z,5.67
2019-06-26T00:28:51.582Z,5.92
2019-06-26T00:31:20.358Z,4.90
2019-06-26T00:33:49.403Z,5.20
2019-06-26T00:36:18.202Z,5.30
2019-06-26T00:38:47.247Z,5.33
2019-06-26T00:41:16.268Z,5.40
2019-06-26T00:43:44.962Z,5.08
2019-06-26T00:46:13.704Z,5.87
2019-06-26T00:48:42.354Z,6.10
2019-06-26T00:51:11.378Z,5.90
2019-06-26T00:53:40.224Z,6.20
2019-06-26T00:56:08.878Z,5.50
2019-06-26T00:58:37.680Z,6.25
2019-06-26T01:01:06.674Z,5.83
2019-06-26T01:03:36.541Z,5.75
2019-06-26T01:06:06.918Z,5.58
2019-06-26T01:08:35.690Z,6.65
2019-06-26T01:11:04.678Z,5.97
2019-06-26T01:13:33.615Z,6.53
2019-06-26T01:16:02.319Z,6.83
2019-06-26T01:18:30.995Z,5.83
2019-06-26T01:20:59.670Z,5.77
2019-06-26T01:23:28.378Z,5.75
2019-06-26T01:25:57.315Z,5.95
2019-06-26T01:28:26.472Z,6.20
2019-06-26T01:30:55.285Z,5.65
2019-06-26T01:33:24.206Z,6.05
2019-06-26T01:35:52.889Z,5.95
2019-06-26T01:38:21.958Z,6.17
2019-06-26T01:40:50.660Z,6.10
2019-06-26T01:43:19.487Z,5.90
2019-06-26T01:45:48.284Z,5.85
2019-06-26T01:48:17.225Z,6.33
2019-06-26T01:50:45.977Z,6.40
2019-06-26T01:53:15.055Z,6.80
2019-06-26T01:55:43.903Z,5.62
2019-06-26T01:58:12.593Z,6.50
2019-06-26T02:00:41.659Z,6.93
2019-06-26T02:03:10.446Z,5.97
2019-06-26T02:05:40.413Z,6.83
2019-06-26T02:08:09.316Z,6.70
2019-06-26T02:10:38.015Z,6.92
2019-06-26T02:13:07.197Z,7.50
2019-06-26T02:15:36.381Z,7.08
2019-06-26T02:18:06.991Z,7.33
2019-06-26T02:20:35.679Z,7.10
2019-06-26T02:23:04.601Z,8.00
2019-06-26T02:25:33.641Z,7.65
2019-06-26T02:28:02.350Z,7.17
2019-06-26T02:30:31.079Z,7.80
2019-06-26T02:32:59.776Z,7.17
2019-06-26T02:35:28.508Z,7.25
2019-06-26T02:37:57.349Z,7.47
2019-06-26T02:40:26.046Z,7.92
2019-06-26T02:42:55.213Z,7.00
2019-06-26T02:45:24.275Z,7.92
2019-06-26T02:47:53.308Z,7.80
2019-06-26T02:50:22.223Z,7.72
2019-06-26T02:52:50.998Z,8.03
2019-06-26T02:55:20.281Z,8.08
2019-06-26T02:57:49.411Z,7.92
2019-06-26T03:00:18.230Z,8.23
2019-06-26T03:02:47.389Z,7.83
2019-06-26T03:05:16.283Z,8.33
2019-06-26T03:07:45.170Z,8.18
2019-06-26T03:10:14.217Z,7.15
2019-06-26T03:12:42.914Z,8.10
2019-06-26T03:15:12.587Z,8.58
2019-06-26T03:17:54.814Z,7.85
2019-06-26T03:20:12.403Z,8.10
2019-06-26T03:22:41.430Z,7.90
2019-06-26T03:25:10.810Z,7.53
2019-06-26T03:27:39.492Z,7.95
2019-06-26T03:30:08.759Z,7.97
2019-06-26T03:32:37.423Z,8.23
2019-06-26T03:35:06.968Z,9.05
2019-06-26T03:37:35.702Z,8.33
2019-06-26T03:40:05.139Z,9.10
2019-06-26T03:42:34.733Z,8.05
2019-06-26T03:45:03.783Z,8.03
2019-06-26T03:47:32.513Z,8.00
2019-06-26T03:50:01.185Z,7.80
2019-06-26T03:52:30.081Z,8.15
2019-06-26T03:54:58.806Z,8.73
2019-06-26T03:57:27.513Z,8.25
2019-06-26T03:59:56.470Z,8.20
2019-06-26T04:02:25.384Z,8.75
2019-06-26T04:04:54.439Z,7.42
2019-06-26T04:07:23.274Z,8.88
2019-06-26T04:09:53.024Z,8.65
2019-06-26T04:12:22.046Z,8.90
2019-06-26T04:14:50.972Z,9.50
2019-06-26T04:17:19.724Z,8.40
2019-06-26T04:19:48.678Z,9.13
2019-06-26T04:22:17.728Z,8.80
2019-06-26T04:24:46.508Z,8.53
2019-06-26T04:27:15.271Z,9.08
2019-06-26T04:29:44.286Z,9.45
2019-06-26T04:32:12.978Z,8.13
2019-06-26T04:34:42.031Z,8.68
2019-06-26T04:37:10.871Z,8.45
2019-06-26T04:39:39.845Z,8.70
2019-06-26T04:42:08.592Z,8.73
2019-06-26T04:44:37.643Z,8.83
2019-06-26T04:47:06.356Z,9.00
2019-06-26T04:49:35.022Z,8.95
2019-06-26T04:52:04.037Z,8.85
2019-06-26T04:54:33.169Z,8.48
2019-06-26T04:57:01.846Z,9.58
2019-06-26T04:59:30.874Z,8.88
2019-06-26T05:01:59.619Z,8.60
2019-06-26T05:04:28.482Z,8.50
2019-06-26T05:06:57.565Z,8.55
2019-06-26T05:09:26.258Z,8.90
2019-06-26T05:11:56.030Z,9.10
2019-06-26T05:14:25.235Z,8.55
2019-06-26T05:16:53.998Z,9.00
2019-06-26T05:19:23.019Z,8.13
2019-06-26T05:21:51.739Z,8.65
2019-06-26T05:24:21.385Z,8.05
2019-06-26T05:26:50.547Z,8.40
2019-06-26T05:29:19.406Z,9.63
2019-06-26T05:31:48.621Z,8.48
2019-06-26T05:34:17.306Z,9.70
2019-06-26T05:36:46.377Z,8.05
2019-06-26T05:39:15.087Z,8.87
2019-06-26T05:41:43.762Z,8.18
2019-06-26T05:44:12.542Z,8.00
2019-06-26T05:46:41.669Z,8.18
2019-06-26T05:49:10.361Z,8.28
2019-06-26T05:51:39.332Z,8.28
2019-06-26T05:54:08.018Z,8.43
2019-06-26T05:56:37.242Z,7.60
2019-06-26T05:59:06.206Z,8.30
2019-06-26T06:01:35.039Z,8.18
2019-06-26T06:04:04.228Z,10.20
2019-06-26T06:06:41.607Z,9.18
2019-06-26T06:09:05.043Z,8.58
2019-06-26T06:11:33.711Z,8.43
2019-06-26T06:14:02.631Z,8.15
2019-06-26T06:16:46.441Z,8.33
2019-06-26T06:19:01.987Z,8.30
2019-06-26T06:21:30.773Z,8.53
2019-06-26T06:23:59.780Z,8.00
2019-06-26T06:26:28.446Z,8.43
2019-06-26T06:28:57.281Z,8.30
2019-06-26T06:31:26.255Z,8.33
2019-06-26T06:33:54.978Z,8.78
2019-06-26T06:36:24.338Z,18.73
2019-06-26T06:38:53.373Z,8.70
2019-06-26T06:41:22.218Z,7.85
2019-06-26T06:43:51.176Z,7.85
2019-06-26T06:46:20.525Z,7.95
2019-06-26T06:48:49.252Z,7.92
2019-06-26T06:51:18.335Z,7.65
2019-06-26T06:53:47.048Z,7.70
2019-06-26T06:56:16.021Z,7.92
2019-06-26T06:58:45.142Z,7.87
2019-06-26T07:01:13.817Z,8.10
2019-06-26T07:03:43.042Z,8.20
2019-06-26T07:06:12.067Z,7.20
2019-06-26T07:08:40.986Z,9.95
2019-06-26T07:11:09.694Z,7.40
2019-06-26T07:13:38.504Z,7.50
2019-06-26T07:16:08.608Z,7.42
2019-06-26T07:18:37.537Z,7.40
2019-06-26T07:21:08.875Z,7.28
2019-06-26T07:23:39.190Z,8.58
2019-06-26T07:26:08.058Z,6.90
2019-06-26T07:28:37.211Z,6.95
2019-06-26T07:31:05.886Z,6.83
2019-06-26T07:33:34.586Z,7.20
2019-06-26T07:36:03.808Z,6.95
2019-06-26T07:38:32.678Z,7.97
2019-06-26T07:41:01.374Z,7.40
2019-06-26T07:43:30.740Z,6.47
2019-06-26T07:45:59.566Z,6.05
2019-06-26T07:48:28.248Z,7.03
2019-06-26T07:50:57.818Z,6.05
2019-06-26T07:53:26.911Z,6.70
2019-06-26T07:55:55.665Z,6.20
2019-06-26T07:58:24.553Z,5.05
2019-06-26T08:00:53.249Z,5.33
2019-06-26T08:03:22.234Z,5.87
2019-06-26T08:05:51.190Z,5.12
2019-06-26T08:08:20.103Z,6.08
2019-06-26T08:10:48.862Z,6.15
2019-06-26T08:13:18.495Z,5.32
2019-06-26T08:15:47.299Z,5.57
2019-06-26T08:18:16.142Z,5.53
2019-06-26T08:21:00.492Z,6.12
2019-06-26T08:23:15.519Z,5.92
2019-06-26T08:25:44.335Z,6.03
2019-06-26T08:28:13.022Z,5.40
2019-06-26T08:30:41.742Z,5.65
2019-06-26T08:33:10.394Z,5.33
2019-06-26T08:35:39.599Z,6.22
2019-06-26T08:38:12.461Z,5.45
2019-06-26T08:40:38.683Z,4.67
2019-06-26T08:43:07.501Z,5.35
2019-06-26T08:45:36.194Z,5.53
2019-06-26T08:48:18.832Z,5.22
2019-06-26T08:50:35.739Z,5.12
2019-06-26T08:53:04.542Z,5.37
2019-06-26T08:55:33.229Z,4.45
2019-06-26T08:58:02.144Z,5.17
2019-06-26T09:00:30.794Z,5.70
2019-06-26T09:02:59.549Z,5.33
2019-06-26T09:05:28.335Z,4.87
2019-06-26T09:07:57.094Z,4.92
2019-06-26T09:10:26.014Z,5.20
2019-06-26T09:12:54.948Z,5.17
2019-06-26T09:15:23.722Z,4.60
2019-06-26T09:17:52.390Z,4.87
2019-06-26T09:20:30.261Z,5.03
2019-06-26T09:22:59.174Z,5.53
2019-06-26T09:25:27.917Z,5.50
2019-06-26T09:27:56.862Z,6.42
2019-06-26T09:30:25.866Z,5.20
2019-06-26T09:32:54.724Z,4.53
2019-06-26T09:35:23.898Z,5.00
2019-06-26T09:37:52.791Z,5.53
2019-06-26T09:40:21.862Z,4.97
2019-06-26T09:42:50.606Z,5.55
2019-06-26T09:45:20.134Z,5.28
2019-06-26T09:47:49.186Z,4.90
2019-06-26T09:50:18.203Z,4.80
2019-06-26T09:52:46.968Z,4.60
2019-06-26T09:55:16.712Z,4.65
2019-06-26T09:57:45.514Z,4.50
2019-06-26T10:00:15.999Z,4.30
2019-06-26T10:02:45.161Z,4.58
2019-06-26T10:05:14.020Z,4.37
2019-06-26T10:07:42.742Z,4.40
2019-06-26T10:10:11.799Z,4.40
2019-06-26T10:12:40.506Z,4.30
2019-06-26T10:15:10.890Z,4.30
2019-06-26T10:17:39.651Z,4.60
2019-06-26T10:20:09.423Z,5.58
2019-06-26T10:22:39.641Z,5.12
2019-06-26T10:25:11.251Z,5.35
2019-06-26T10:27:39.190Z,5.08
2019-06-26T10:30:08.463Z,5.03
2019-06-26T10:32:37.419Z,4.85
2019-06-26T10:35:07.272Z,5.10
2019-06-26T10:37:36.352Z,5.08
2019-06-26T10:40:05.680Z,4.80
2019-06-26T10:42:34.657Z,5.57
2019-06-26T10:45:03.794Z,5.78
2019-06-26T10:47:32.447Z,4.90
2019-06-26T10:50:01.310Z,5.17
2019-06-26T10:52:30.081Z,4.65
2019-06-26T10:54:59.126Z,4.58
2019-06-26T10:57:28.250Z,5.60
2019-06-26T10:59:57.186Z,5.70
2019-06-26T11:02:25.864Z,5.00
2019-06-26T11:04:54.634Z,4.72
2019-06-26T11:07:23.399Z,4.47
2019-06-26T11:09:52.441Z,6.67
2019-06-26T11:12:21.716Z,4.80
2019-06-26T11:14:50.991Z,4.72
2019-06-26T11:17:19.714Z,4.62
2019-06-26T11:19:48.992Z,4.38
2019-06-26T11:22:18.111Z,4.30
2019-06-26T11:24:48.102Z,5.40
2019-06-26T11:27:16.933Z,4.85
2019-06-26T11:29:45.600Z,4.75
2019-06-26T11:32:14.389Z,4.90
2019-06-26T11:34:43.094Z,4.60
2019-06-26T11:37:11.806Z,4.12
2019-06-26T11:39:40.635Z,4.70
2019-06-26T11:42:09.327Z,4.65
2019-06-26T11:44:37.982Z,4.60
2019-06-26T11:47:06.875Z,5.07
2019-06-26T11:49:35.754Z,4.97
2019-06-26T11:52:04.426Z,4.30
2019-06-26T11:54:33.113Z,5.15
2019-06-26T11:57:01.955Z,4.53
2019-06-26T11:59:30.938Z,5.20
2019-06-26T12:01:59.957Z,4.95
2019-06-26T12:04:28.906Z,4.92
2019-06-26T12:06:57.622Z,5.00
2019-06-26T12:09:26.298Z,5.67
2019-06-26T12:11:55.413Z,4.75
2019-06-26T12:14:24.627Z,4.10
2019-06-26T12:16:53.297Z,4.70
2019-06-26T12:19:23.655Z,4.43
2019-06-26T12:21:52.681Z,4.78
2019-06-26T12:24:21.951Z,5.12
2019-06-26T12:26:51.713Z,4.53
2019-06-26T12:29:20.520Z,5.83
2019-06-26T12:31:49.231Z,5.20
2019-06-26T12:34:18.102Z,4.90
2019-06-26T12:36:47.068Z,4.70
2019-06-26T12:39:15.722Z,5.42
2019-06-26T12:41:44.680Z,4.47
2019-06-26T12:44:13.675Z,6.45
2019-06-26T12:46:42.413Z,4.60
2019-06-26T12:49:11.340Z,4.72
2019-06-26T12:51:40.019Z,4.70
2019-06-26T12:54:08.918Z,5.08
2019-06-26T12:56:38.005Z,5.20
2019-06-26T12:59:06.757Z,4.70
2019-06-26T13:01:35.416Z,4.50
2019-06-26T13:04:04.243Z,4.97
2019-06-26T13:06:33.011Z,4.87
2019-06-26T13:09:01.833Z,5.12
2019-06-26T13:11:30.773Z,5.10
2019-06-26T13:14:03.001Z,4.80
2019-06-26T13:16:29.911Z,4.93
2019-06-26T13:18:58.716Z,5.03
2019-06-26T13:21:27.538Z,5.03
2019-06-26T13:23:56.539Z,4.75
2019-06-26T13:26:25.316Z,5.00
2019-06-26T13:28:54.411Z,4.80
2019-06-26T13:31:23.413Z,5.62
2019-06-26T13:33:52.423Z,5.45
2019-06-26T13:36:21.136Z,5.42
2019-06-26T13:38:50.258Z,5.37
2019-06-26T13:41:19.654Z,5.33
2019-06-26T13:43:48.330Z,5.70
2019-06-26T13:46:17.350Z,5.40
2019-06-26T13:48:46.093Z,5.60
2019-06-26T13:51:14.919Z,5.40
2019-06-26T13:53:44.445Z,5.78
2019-06-26T13:56:13.350Z,6.10
2019-06-26T13:58:42.056Z,5.50
2019-06-26T14:01:11.315Z,5.37
2019-06-26T14:03:40.103Z,5.92
2019-06-26T14:06:08.862Z,5.50
2019-06-26T14:08:37.831Z,5.50
2019-06-26T14:11:07.654Z,5.90
2019-06-26T14:13:36.461Z,5.62
2019-06-26T14:16:05.635Z,5.50
2019-06-26T14:18:34.425Z,5.28
2019-06-26T14:21:03.134Z,5.30
2019-06-26T14:23:31.967Z,5.47
2019-06-26T14:26:00.716Z,5.33
2019-06-26T14:28:29.903Z,5.80
2019-06-26T14:30:59.998Z,5.77
2019-06-26T14:33:28.875Z,5.55
2019-06-26T14:35:57.695Z,5.30
2019-06-26T14:38:26.639Z,5.30
2019-06-26T14:40:55.498Z,6.10
2019-06-26T14:43:24.514Z,5.90
2019-06-26T14:45:55.741Z,5.80
2019-06-26T14:48:25.238Z,6.17
2019-06-26T14:50:54.343Z,5.10
2019-06-26T14:53:23.136Z,5.62
2019-06-26T14:55:52.121Z,5.22
2019-06-26T14:58:20.850Z,5.40
2019-06-26T15:00:49.598Z,5.80
2019-06-26T15:03:19.132Z,5.40
2019-06-26T15:05:48.326Z,5.40
2019-06-26T15:08:17.203Z,5.15
2019-06-26T15:10:46.319Z,5.97
2019-06-26T15:13:18.581Z,5.72
2019-06-26T15:15:47.400Z,6.40
2019-06-26T15:18:16.286Z,5.55
2019-06-26T15:20:45.280Z,5.97
2019-06-26T15:23:14.010Z,5.35
2019-06-26T15:25:42.819Z,5.65
2019-06-26T15:28:11.759Z,5.40
2019-06-26T15:30:40.510Z,5.25
2019-06-26T15:33:09.603Z,5.47
2019-06-26T15:35:38.772Z,6.20
2019-06-26T15:38:07.548Z,5.72
2019-06-26T15:40:36.379Z,5.47
2019-06-26T15:43:05.085Z,5.03
2019-06-26T15:45:34.343Z,5.35
2019-06-26T15:48:03.258Z,5.40
2019-06-26T15:50:32.065Z,5.40
2019-06-26T15:53:01.102Z,5.42
2019-06-26T15:55:29.993Z,5.85
2019-06-26T15:57:59.003Z,5.08
2019-06-26T16:00:35.378Z,5.17
2019-06-26T16:03:06.635Z,4.53
2019-06-26T16:05:35.333Z,5.55
2019-06-26T16:08:04.266Z,4.40
2019-06-26T16:10:34.617Z,5.05
2019-06-26T16:13:03.936Z,4.80
2019-06-26T16:15:33.037Z,5.12
2019-06-26T16:18:19.731Z,4.58
2019-06-26T16:20:48.675Z,5.70
2019-06-26T16:23:17.430Z,4.58
2019-06-26T16:25:46.174Z,4.62
2019-06-26T16:28:14.936Z,4.42
2019-06-26T16:30:43.670Z,4.92
2019-06-26T16:33:12.345Z,4.12
2019-06-26T16:35:41.228Z,4.80
2019-06-26T16:38:10.150Z,4.83
2019-06-26T16:40:39.650Z,6.60
2019-06-26T16:43:08.488Z,5.20
2019-06-26T16:45:37.248Z,4.30
2019-06-26T16:48:06.095Z,4.25
2019-06-26T16:50:35.070Z,5.40
2019-06-26T16:53:06.978Z,12.60
2019-06-26T16:55:35.879Z,4.35
2019-06-26T16:58:04.890Z,4.13
2019-06-26T17:00:33.822Z,4.50
2019-06-26T17:03:03.896Z,4.47
2019-06-26T17:05:32.670Z,8.23
2019-06-26T17:08:01.374Z,4.62
2019-06-26T17:10:30.148Z,4.45
2019-06-26T17:12:59.222Z,4.37
2019-06-26T17:15:28.586Z,4.38
2019-06-26T17:17:57.518Z,4.70
2019-06-26T17:20:26.388Z,4.42
2019-06-26T17:23:05.040Z,4.87
2019-06-26T17:25:25.626Z,4.53
2019-06-26T17:27:54.382Z,4.03
2019-06-26T17:30:23.242Z,4.25
2019-06-26T17:32:51.983Z,4.10
2019-06-26T17:35:20.907Z,4.10
2019-06-26T17:37:50.194Z,3.72
2019-06-26T17:40:19.242Z,3.95
2019-06-26T17:42:48.110Z,5.10
2019-06-26T17:45:17.054Z,4.37
2019-06-26T17:47:45.736Z,3.67
2019-06-26T17:50:15.028Z,4.28
2019-06-26T17:52:43.747Z,10.78
2019-06-26T17:55:12.695Z,3.80
2019-06-26T17:57:41.634Z,2.90
2019-06-26T18:00:11.420Z,2.83
2019-06-26T18:02:40.479Z,3.10
2019-06-26T18:05:10.466Z,3.17
2019-06-26T18:07:39.514Z,3.25
2019-06-26T18:10:08.532Z,3.30
2019-06-26T18:12:37.506Z,3.00
2019-06-26T18:15:06.399Z,2.67
2019-06-26T18:17:35.132Z,3.15
2019-06-26T18:20:04.068Z,3.13
2019-06-26T18:22:32.791Z,3.25
2019-06-26T18:25:01.507Z,2.98
2019-06-26T18:27:30.225Z,3.15
2019-06-26T18:29:59.035Z,3.40
2019-06-26T18:32:27.935Z,3.47
2019-06-26T18:34:57.139Z,3.10
2019-06-26T18:37:25.936Z,3.25
2019-06-26T18:39:54.801Z,3.80
2019-06-26T18:42:24.005Z,3.00
2019-06-26T18:44:52.687Z,3.10
2019-06-26T18:47:21.822Z,3.22
2019-06-26T18:49:50.710Z,3.00
2019-06-26T18:52:19.430Z,3.43
2019-06-26T18:54:48.170Z,3.10
2019-06-26T18:57:17.338Z,3.15
2019-06-26T18:59:46.554Z,3.05
2019-06-26T19:02:15.530Z,3.00
2019-06-26T19:04:44.279Z,3.30
2019-06-26T19:07:12.954Z,3.87
2019-06-26T19:09:42.284Z,3.27
2019-06-26T19:12:11.171Z,3.55
2019-06-26T19:14:39.869Z,3.60
2019-06-26T19:17:08.573Z,3.92
2019-06-26T19:19:37.370Z,3.33
2019-06-26T19:22:06.053Z,3.25
2019-06-26T19:24:34.739Z,3.40
2019-06-26T19:27:07.405Z,3.70
2019-06-26T19:29:34.094Z,3.50
2019-06-26T19:32:03.037Z,3.42
2019-06-26T19:34:31.812Z,4.53
2019-06-26T19:37:00.991Z,4.28
2019-06-26T19:39:29.742Z,3.45
2019-06-26T19:41:59.126Z,3.35
2019-06-26T19:44:28.043Z,3.80
2019-06-26T19:46:57.346Z,3.34
2019-06-26T19:49:26.026Z,3.87
2019-06-26T19:51:54.802Z,3.40
2019-06-26T19:54:28.507Z,3.50
2019-06-26T19:56:53.976Z,3.40
2019-06-26T19:59:22.722Z,3.22
2019-06-26T20:01:51.587Z,3.47
2019-06-26T20:04:20.710Z,3.40
2019-06-26T20:06:49.655Z,3.87
2019-06-26T20:09:18.648Z,3.70
2019-06-26T20:11:47.487Z,3.40
2019-06-26T20:14:16.642Z,3.27
2019-06-26T20:16:45.383Z,2.95
2019-06-26T20:19:14.494Z,3.58
2019-06-26T20:21:43.401Z,3.33
2019-06-26T20:24:12.325Z,2.80
2019-06-26T20:26:41.702Z,3.22
2019-06-26T20:29:10.362Z,3.00
2019-06-26T20:31:39.195Z,3.00
2019-06-26T20:34:08.421Z,3.72
2019-06-26T20:36:37.571Z,3.00
2019-06-26T20:39:06.524Z,3.52
2019-06-26T20:41:35.697Z,3.00
2019-06-26T20:44:04.650Z,2.83
2019-06-26T20:46:33.944Z,3.13
2019-06-26T20:49:02.847Z,3.42
2019-06-26T20:51:31.529Z,3.40
2019-06-26T20:54:00.200Z,3.42
2019-06-26T20:56:29.050Z,3.35
2019-06-26T20:58:57.826Z,2.98
2019-06-26T21:01:26.489Z,3.52
2019-06-26T21:03:55.214Z,3.30
2019-06-26T21:06:24.230Z,3.17
2019-06-26T21:08:52.961Z,3.02
2019-06-26T21:11:21.734Z,3.20
2019-06-26T21:13:50.656Z,2.87
2019-06-26T21:16:19.792Z,2.95
2019-06-26T21:18:48.559Z,2.90
2019-06-26T21:21:17.292Z,2.58
2019-06-26T21:23:46.442Z,2.77
2019-06-26T21:26:15.534Z,3.00
2019-06-26T21:28:44.258Z,3.12
2019-06-26T21:31:13.146Z,3.00
2019-06-26T21:33:41.935Z,3.62
2019-06-26T21:36:11.759Z,3.33
2019-06-26T21:38:40.572Z,3.40
2019-06-26T21:41:09.418Z,2.80
2019-06-26T21:43:38.375Z,2.87
2019-06-26T21:46:07.665Z,3.40
2019-06-26T21:48:36.356Z,2.62
2019-06-26T21:51:05.207Z,2.60
2019-06-26T21:53:33.940Z,3.17
2019-06-26T21:56:02.906Z,2.60
2019-06-26T21:58:31.899Z,2.95
2019-06-26T22:01:00.734Z,2.87
2019-06-26T22:03:29.949Z,2.90
2019-06-26T22:05:59.007Z,2.90
2019-06-26T22:08:27.939Z,2.62
2019-06-26T22:10:57.219Z,2.67
2019-06-26T22:13:25.970Z,2.98
2019-06-26T22:15:54.659Z,2.35
2019-06-26T22:18:23.668Z,3.00
2019-06-26T22:20:52.362Z,2.33
2019-06-26T22:23:21.122Z,2.12
2019-06-26T22:25:51.383Z,2.83
2019-06-26T22:28:20.338Z,2.95
2019-06-26T22:30:49.064Z,2.47
2019-06-26T22:33:18.120Z,3.37
2019-06-26T22:35:47.366Z,2.47
2019-06-26T22:38:16.162Z,2.87
2019-06-26T22:40:45.031Z,2.67
2019-06-26T22:43:14.140Z,2.22
2019-06-26T22:45:42.486Z,2.70
2019-06-26T22:48:11.619Z,2.65
2019-06-26T22:50:40.549Z,2.50
2019-06-26T22:53:09.247Z,2.50
2019-06-26T22:55:38.051Z,2.33
2019-06-26T22:58:07.319Z,2.40
2019-06-26T23:00:35.995Z,2.90
2019-06-26T23:03:04.919Z,2.80
2019-06-26T23:05:33.920Z,2.63
2019-06-26T23:08:02.715Z,2.17
2019-06-26T23:10:31.547Z,2.22
2019-06-26T23:13:00.302Z,2.70
2019-06-26T23:15:29.198Z,2.92
2019-06-26T23:17:58.363Z,2.92
2019-06-26T23:20:27.188Z,2.67
2019-06-26T23:22:56.224Z,2.92
2019-06-26T23:25:25.312Z,2.73
2019-06-26T23:27:54.750Z,2.90
2019-06-26T23:30:23.650Z,3.10
2019-06-26T23:32:53.693Z,2.52
2019-06-26T23:35:22.471Z,3.08
2019-06-26T23:37:51.537Z,3.17
2019-06-26T23:40:20.641Z,3.08
2019-06-26T23:42:49.847Z,3.73
2019-06-26T23:45:18.683Z,3.12
2019-06-26T23:47:47.407Z,3.05
2019-06-26T23:50:16.658Z,4.17
2019-06-26T23:52:45.476Z,2.90
2019-06-26T23:55:14.463Z,3.27
2019-06-26T23:57:57.903Z,3.67
